createdAt,value
2022-09-19T00:00:10.803Z,1.88
2022-09-19T00:00:33.588Z,2.10
2022-09-19T00:00:59.339Z,1.98
2022-09-19T00:01:23.900Z,2.10
2022-09-19T00:01:47.294Z,1.70
2022-09-19T00:02:10.431Z,1.80
2022-09-19T00:02:33.676Z,1.80
2022-09-19T00:02:57.699Z,1.83
2022-09-19T00:03:20.518Z,1.92
2022-09-19T00:03:44.498Z,1.83
2022-09-19T00:04:08.805Z,2.10
2022-09-19T00:04:32.681Z,1.90
2022-09-19T00:04:55.468Z,1.85
2022-09-19T00:05:18.263Z,2.00
2022-09-19T00:05:41.430Z,1.83
2022-09-19T00:06:04.413Z,1.70
2022-09-19T00:06:30.869Z,1.85
2022-09-19T00:06:54.916Z,1.85
2022-09-19T00:07:17.603Z,1.85
2022-09-19T00:07:40.329Z,1.90
2022-09-19T00:08:03.218Z,1.83
2022-09-19T00:08:26.093Z,1.90
2022-09-19T00:08:48.888Z,2.00
2022-09-19T00:09:12.748Z,2.03
2022-09-19T00:09:36.617Z,2.00
2022-09-19T00:10:01.678Z,1.85
2022-09-19T00:10:24.464Z,1.70
2022-09-19T00:10:47.259Z,1.80
2022-09-19T00:11:10.960Z,1.80
2022-09-19T00:11:33.864Z,1.88
2022-09-19T00:11:57.349Z,1.95
2022-09-19T00:12:22.753Z,1.90
2022-09-19T00:12:45.459Z,1.50
2022-09-19T00:13:08.578Z,1.70
2022-09-19T00:13:32.330Z,1.70
2022-09-19T00:13:56.980Z,1.83
2022-09-19T00:14:22.422Z,1.90
2022-09-19T00:14:45.111Z,1.70
2022-09-19T00:15:09.305Z,1.70
2022-09-19T00:15:34.377Z,1.70
2022-09-19T00:15:57.091Z,1.70
2022-09-19T00:16:21.240Z,2.15
2022-09-19T00:16:48.010Z,2.10
2022-09-19T00:17:10.896Z,1.85
2022-09-19T00:17:36.160Z,2.20
2022-09-19T00:17:59.345Z,2.10
2022-09-19T00:18:22.084Z,1.95
2022-09-19T00:18:44.819Z,1.90
2022-09-19T00:19:08.426Z,1.88
2022-09-19T00:19:31.384Z,2.05
2022-09-19T00:19:54.114Z,2.00
2022-09-19T00:20:19.224Z,2.00
2022-09-19T00:20:42.339Z,2.20
2022-09-19T00:21:05.354Z,1.83
2022-09-19T00:21:33.527Z,2.00
2022-09-19T00:21:57.135Z,1.80
2022-09-19T00:22:19.924Z,2.00
2022-09-19T00:23:02.594Z,2.00
2022-09-19T00:23:43.941Z,1.90
2022-09-19T00:24:22.737Z,2.20
2022-09-19T00:24:50.109Z,2.10
2022-09-19T00:25:12.813Z,1.90
2022-09-19T00:25:35.545Z,2.30
2022-09-19T00:25:59.642Z,2.05
2022-09-19T00:26:22.890Z,1.90
2022-09-19T00:26:48.355Z,2.25
2022-09-19T00:27:11.942Z,2.38
2022-09-19T00:27:34.647Z,2.20
2022-09-19T00:27:57.384Z,1.98
2022-09-19T00:28:23.251Z,2.10
2022-09-19T00:28:46.590Z,1.90
2022-09-19T00:29:11.656Z,2.10
2022-09-19T00:29:37.311Z,2.00
2022-09-19T00:30:00.056Z,2.15
2022-09-19T00:30:22.791Z,2.20
2022-09-19T00:30:45.526Z,2.17
2022-09-19T00:31:18.598Z,2.08
2022-09-19T00:31:41.487Z,1.90
2022-09-19T00:32:08.846Z,1.90
2022-09-19T00:32:33.471Z,1.92
2022-09-19T00:32:56.165Z,1.90
2022-09-19T00:33:19.539Z,1.92
2022-09-19T00:33:42.218Z,1.90
2022-09-19T00:34:10.341Z,1.92
2022-09-19T00:34:33.847Z,1.85
2022-09-19T00:34:57.151Z,1.73
2022-09-19T00:35:21.180Z,1.85
2022-09-19T00:35:43.955Z,2.10
2022-09-19T00:36:06.972Z,2.08
2022-09-19T00:36:29.648Z,2.00
2022-09-19T00:36:54.604Z,2.08
2022-09-19T00:37:18.083Z,2.00
2022-09-19T00:37:40.956Z,2.03
2022-09-19T00:38:03.676Z,2.00
2022-09-19T00:38:27.538Z,1.98
2022-09-19T00:38:50.338Z,1.80
2022-09-19T00:39:14.297Z,1.83
2022-09-19T00:39:37.287Z,1.80
2022-09-19T00:40:00.160Z,1.70
2022-09-19T00:40:22.996Z,2.17
2022-09-19T00:40:45.762Z,1.95
2022-09-19T00:41:10.886Z,1.88
2022-09-19T00:41:34.033Z,1.90
2022-09-19T00:41:56.817Z,1.80
2022-09-19T00:42:20.876Z,1.90
2022-09-19T00:42:43.572Z,1.83
2022-09-19T00:43:09.127Z,1.70
2022-09-19T00:43:48.195Z,2.00
2022-09-19T00:44:44.266Z,2.10
2022-09-19T00:45:13.053Z,1.90
2022-09-19T00:45:35.856Z,2.00
2022-09-19T00:45:58.637Z,1.80
2022-09-19T00:46:22.464Z,1.95
2022-09-19T00:46:45.292Z,2.10
2022-09-19T00:47:11.580Z,2.17
2022-09-19T00:47:39.699Z,2.00
2022-09-19T00:48:02.754Z,1.90
2022-09-19T00:48:25.651Z,1.98
2022-09-19T00:48:53.001Z,2.13
2022-09-19T00:49:16.340Z,1.90
2022-09-19T00:49:42.412Z,2.00
2022-09-19T00:50:12.229Z,1.88
2022-09-19T00:50:35.042Z,2.15
2022-09-19T00:50:57.978Z,1.90
2022-09-19T00:51:24.339Z,2.00
2022-09-19T00:51:49.533Z,1.70
2022-09-19T00:52:14.000Z,1.83
2022-09-19T00:52:41.922Z,1.88
2022-09-19T00:53:06.036Z,2.00
2022-09-19T00:53:32.326Z,1.90
2022-09-19T00:53:56.128Z,2.00
2022-09-19T00:54:21.033Z,2.00
2022-09-19T00:54:44.924Z,1.90
2022-09-19T00:55:08.774Z,2.00
2022-09-19T00:55:32.746Z,2.08
2022-09-19T00:55:56.429Z,1.98
2022-09-19T00:56:19.715Z,1.80
2022-09-19T00:56:43.406Z,1.95
2022-09-19T00:57:06.409Z,2.10
2022-09-19T00:57:37.152Z,1.83
2022-09-19T00:58:03.602Z,1.80
2022-09-19T00:58:28.528Z,1.92
2022-09-19T00:58:51.678Z,2.00
2022-09-19T00:59:14.371Z,2.00
2022-09-19T00:59:38.559Z,2.15
2022-09-19T01:00:01.713Z,2.03
2022-09-19T01:00:25.950Z,2.10
2022-09-19T01:00:48.870Z,2.10
2022-09-19T01:01:12.153Z,2.20
2022-09-19T01:01:34.898Z,2.17
2022-09-19T01:01:57.648Z,2.00
2022-09-19T01:02:23.657Z,1.92
2022-09-19T01:02:50.111Z,1.98
2022-09-19T01:03:13.208Z,2.00
2022-09-19T01:03:36.083Z,1.80
2022-09-19T01:03:58.898Z,2.30
2022-09-19T01:04:24.655Z,2.28
2022-09-19T01:04:47.387Z,2.05
2022-09-19T01:05:10.061Z,2.20
2022-09-19T01:05:37.151Z,1.75
2022-09-19T01:06:04.276Z,1.75
2022-09-19T01:06:41.166Z,1.83
2022-09-19T01:07:07.367Z,2.00
2022-09-19T01:07:36.858Z,2.10
2022-09-19T01:08:11.217Z,2.20
2022-09-19T01:08:54.113Z,2.28
2022-09-19T01:09:28.389Z,2.10
2022-09-19T01:09:55.855Z,2.08
2022-09-19T01:10:26.254Z,2.00
2022-09-19T01:11:06.641Z,2.30
2022-09-19T01:11:57.674Z,2.05
2022-09-19T01:12:28.495Z,2.00
2022-09-19T01:12:53.889Z,2.22
2022-09-19T01:13:21.454Z,2.25
2022-09-19T01:13:49.716Z,2.13
2022-09-19T01:14:18.293Z,2.20
2022-09-19T01:14:54.966Z,2.00
2022-09-19T01:15:29.778Z,2.53
2022-09-19T01:15:56.092Z,2.33
2022-09-19T01:16:22.078Z,2.30
2022-09-19T01:16:48.804Z,2.22
2022-09-19T01:17:13.849Z,2.20
2022-09-19T01:17:43.741Z,2.28
2022-09-19T01:18:08.219Z,2.22
2022-09-19T01:18:37.471Z,2.22
2022-09-19T01:19:06.570Z,2.05
2022-09-19T01:19:52.156Z,2.45
2022-09-19T01:20:54.567Z,2.20
2022-09-19T01:21:41.920Z,2.30
2022-09-19T01:22:06.900Z,2.15
2022-09-19T01:22:32.539Z,2.15
2022-09-19T01:23:05.466Z,2.20
2022-09-19T01:23:49.407Z,2.30
2022-09-19T01:24:43.524Z,2.20
2022-09-19T01:25:10.164Z,2.10
2022-09-19T01:25:34.874Z,2.03
2022-09-19T01:26:04.644Z,2.22
2022-09-19T01:26:40.945Z,2.35
2022-09-19T01:27:52.311Z,2.75
2022-09-19T01:28:19.569Z,2.20
2022-09-19T01:28:43.063Z,2.15
2022-09-19T01:29:08.654Z,2.25
2022-09-19T01:29:33.440Z,2.10
2022-09-19T01:29:57.779Z,2.05
2022-09-19T01:30:20.568Z,2.17
2022-09-19T01:30:48.599Z,2.10
2022-09-19T01:31:19.358Z,2.47
2022-09-19T01:31:44.334Z,2.30
2022-09-19T01:32:09.369Z,2.15
2022-09-19T01:32:36.166Z,2.20
2022-09-19T01:33:00.636Z,1.92
2022-09-19T01:33:23.520Z,2.10
2022-09-19T01:33:48.907Z,2.08
2022-09-19T01:34:16.004Z,2.10
2022-09-19T01:34:40.725Z,2.15
2022-09-19T01:35:06.379Z,2.17
2022-09-19T01:35:31.612Z,2.50
2022-09-19T01:35:55.084Z,2.30
2022-09-19T01:36:17.815Z,2.40
2022-09-19T01:36:42.457Z,2.13
2022-09-19T01:37:07.519Z,2.17
2022-09-19T01:37:32.959Z,2.13
2022-09-19T01:38:01.759Z,2.33
2022-09-19T01:38:25.865Z,2.40
2022-09-19T01:38:49.433Z,2.30
2022-09-19T01:39:12.280Z,2.00
2022-09-19T01:39:37.494Z,2.22
2022-09-19T01:40:01.865Z,2.10
2022-09-19T01:40:24.915Z,2.10
2022-09-19T01:40:47.911Z,2.30
2022-09-19T01:41:11.869Z,2.10
2022-09-19T01:41:34.654Z,2.60
2022-09-19T01:42:00.855Z,2.33
2022-09-19T01:42:23.639Z,2.30
2022-09-19T01:42:52.330Z,2.00
2022-09-19T01:43:15.854Z,2.10
2022-09-19T01:43:38.500Z,2.33
2022-09-19T01:44:06.901Z,2.20
2022-09-19T01:44:31.456Z,2.38
2022-09-19T01:44:55.110Z,2.70
2022-09-19T01:45:17.874Z,2.17
2022-09-19T01:45:41.372Z,2.20
2022-09-19T01:46:08.857Z,2.40
2022-09-19T01:46:37.504Z,2.23
2022-09-19T01:47:10.224Z,2.45
2022-09-19T01:47:39.689Z,2.40
2022-09-19T01:48:07.524Z,2.28
2022-09-19T01:48:33.601Z,2.40
2022-09-19T01:48:59.645Z,2.20
2022-09-19T01:49:32.661Z,2.10
2022-09-19T01:50:06.879Z,2.10
2022-09-19T01:50:40.154Z,2.30
2022-09-19T01:51:13.126Z,2.17
2022-09-19T01:51:37.894Z,2.08
2022-09-19T01:52:04.465Z,2.40
2022-09-19T01:52:39.440Z,2.20
2022-09-19T01:53:06.404Z,2.22
2022-09-19T01:53:39.718Z,2.10
2022-09-19T01:54:09.279Z,2.33
2022-09-19T01:54:37.499Z,2.00
2022-09-19T01:55:04.490Z,2.25
2022-09-19T01:55:28.324Z,2.05
2022-09-19T01:55:53.745Z,2.35
2022-09-19T01:56:21.140Z,2.15
2022-09-19T01:56:52.340Z,2.30
2022-09-19T01:57:20.959Z,2.15
2022-09-19T01:57:47.682Z,2.13
2022-09-19T01:58:13.499Z,2.40
2022-09-19T01:58:39.035Z,2.05
2022-09-19T01:59:05.954Z,2.13
2022-09-19T01:59:52.538Z,2.20
2022-09-19T02:00:16.254Z,2.17
2022-09-19T02:00:40.342Z,2.50
2022-09-19T02:01:06.060Z,2.80
2022-09-19T02:01:31.200Z,2.05
2022-09-19T02:02:01.937Z,2.20
2022-09-19T02:02:30.784Z,2.33
2022-09-19T02:02:59.365Z,2.35
2022-09-19T02:03:27.224Z,2.05
2022-09-19T02:03:51.747Z,2.10
2022-09-19T02:04:16.652Z,2.30
2022-09-19T02:04:44.551Z,1.90
2022-09-19T02:05:10.164Z,2.00
2022-09-19T02:05:37.426Z,2.13
2022-09-19T02:06:02.077Z,2.30
2022-09-19T02:06:29.037Z,2.70
2022-09-19T02:06:53.734Z,2.72
2022-09-19T02:07:21.891Z,2.20
2022-09-19T02:07:47.532Z,2.15
2022-09-19T02:08:13.233Z,2.22
2022-09-19T02:08:41.137Z,2.30
2022-09-19T02:09:05.927Z,2.10
2022-09-19T02:09:30.733Z,2.35
2022-09-19T02:09:57.142Z,2.13
2022-09-19T02:10:22.111Z,2.00
2022-09-19T02:10:48.010Z,2.30
2022-09-19T02:11:13.272Z,2.30
2022-09-19T02:11:36.082Z,2.30
2022-09-19T02:12:00.820Z,2.10
2022-09-19T02:12:24.172Z,2.30
2022-09-19T02:12:47.219Z,2.28
2022-09-19T02:13:11.450Z,2.17
2022-09-19T02:13:35.215Z,2.00
2022-09-19T02:14:11.698Z,2.10
2022-09-19T02:14:35.723Z,2.20
2022-09-19T02:15:01.338Z,2.28
2022-09-19T02:15:31.368Z,2.50
2022-09-19T02:15:57.476Z,2.08
2022-09-19T02:16:22.494Z,2.13
2022-09-19T02:16:48.194Z,2.33
2022-09-19T02:17:13.209Z,2.28
2022-09-19T02:17:46.023Z,2.30
2022-09-19T02:18:10.343Z,2.10
2022-09-19T02:18:38.718Z,2.40
2022-09-19T02:19:03.120Z,2.15
2022-09-19T02:19:27.098Z,2.00
2022-09-19T02:19:51.128Z,2.13
2022-09-19T02:20:17.283Z,1.95
2022-09-19T02:20:45.661Z,2.10
2022-09-19T02:21:12.818Z,2.20
2022-09-19T02:21:38.088Z,2.30
2022-09-19T02:22:02.228Z,2.25
2022-09-19T02:22:28.068Z,2.08
2022-09-19T02:22:53.246Z,2.30
2022-09-19T02:23:17.817Z,1.95
2022-09-19T02:23:44.338Z,2.00
2022-09-19T02:24:10.741Z,2.15
2022-09-19T02:24:34.745Z,2.10
2022-09-19T02:25:00.353Z,2.20
2022-09-19T02:25:24.815Z,2.20
2022-09-19T02:25:47.660Z,2.20
2022-09-19T02:26:11.055Z,2.30
2022-09-19T02:26:33.971Z,2.25
2022-09-19T02:26:59.956Z,2.35
2022-09-19T02:27:25.763Z,2.38
2022-09-19T02:27:51.316Z,2.70
2022-09-19T02:28:18.075Z,2.53
2022-09-19T02:28:43.371Z,2.45
2022-09-19T02:29:06.070Z,2.40
2022-09-19T02:29:31.685Z,2.50
2022-09-19T02:29:55.215Z,2.25
2022-09-19T02:30:22.225Z,2.15
2022-09-19T02:30:45.813Z,2.50
2022-09-19T02:31:08.625Z,2.30
2022-09-19T02:31:31.451Z,2.20
2022-09-19T02:31:54.461Z,2.10
2022-09-19T02:32:18.410Z,2.22
2022-09-19T02:32:49.145Z,2.10
2022-09-19T02:33:11.913Z,2.10
2022-09-19T02:33:37.110Z,2.20
2022-09-19T02:34:00.992Z,2.20
2022-09-19T02:34:23.825Z,2.00
2022-09-19T02:34:50.274Z,2.10
2022-09-19T02:35:14.380Z,2.10
2022-09-19T02:35:41.320Z,2.45
2022-09-19T02:36:09.066Z,2.28
2022-09-19T02:36:34.880Z,2.28
2022-09-19T02:37:02.242Z,2.40
2022-09-19T02:37:30.442Z,2.47
2022-09-19T02:37:58.644Z,2.08
2022-09-19T02:38:25.318Z,2.50
2022-09-19T02:38:51.032Z,2.15
2022-09-19T02:39:17.147Z,2.50
2022-09-19T02:39:44.175Z,2.40
2022-09-19T02:40:09.876Z,2.50
2022-09-19T02:40:34.083Z,2.10
2022-09-19T02:41:02.392Z,2.10
2022-09-19T02:41:27.033Z,2.47
2022-09-19T02:41:54.087Z,2.25
2022-09-19T02:42:21.253Z,2.30
2022-09-19T02:42:48.154Z,2.15
2022-09-19T02:43:16.004Z,2.35
2022-09-19T02:43:48.347Z,2.58
2022-09-19T02:44:20.966Z,2.33
2022-09-19T02:44:53.940Z,2.35
2022-09-19T02:45:19.011Z,2.08
2022-09-19T02:45:44.457Z,2.20
2022-09-19T02:46:09.994Z,2.45
2022-09-19T02:46:36.642Z,2.00
2022-09-19T02:47:03.522Z,2.10
2022-09-19T02:47:28.010Z,2.25
2022-09-19T02:47:53.210Z,2.40
2022-09-19T02:48:17.600Z,2.40
2022-09-19T02:48:46.515Z,2.03
2022-09-19T02:49:11.066Z,2.20
2022-09-19T02:49:39.075Z,2.20
2022-09-19T02:50:04.595Z,2.13
2022-09-19T02:50:30.408Z,2.15
2022-09-19T02:51:00.323Z,2.00
2022-09-19T02:51:26.076Z,1.92
2022-09-19T02:51:50.220Z,2.08
2022-09-19T02:52:17.131Z,2.30
2022-09-19T02:52:39.830Z,2.30
2022-09-19T02:53:03.680Z,2.08
2022-09-19T02:53:28.187Z,2.10
2022-09-19T02:53:54.944Z,1.90
2022-09-19T02:54:19.316Z,2.10
2022-09-19T02:54:43.360Z,2.20
2022-09-19T02:55:13.210Z,1.92
2022-09-19T02:55:41.765Z,2.03
2022-09-19T02:56:05.230Z,2.45
2022-09-19T02:56:32.202Z,2.08
2022-09-19T02:56:54.878Z,2.03
2022-09-19T02:57:20.824Z,1.95
2022-09-19T02:57:48.974Z,1.83
2022-09-19T02:58:12.658Z,2.25
2022-09-19T02:58:38.924Z,2.40
2022-09-19T02:59:04.923Z,1.92
2022-09-19T02:59:30.120Z,1.80
2022-09-19T02:59:53.726Z,1.80
2022-09-19T03:00:16.476Z,1.77
2022-09-19T03:00:39.929Z,2.00
2022-09-19T03:01:04.418Z,2.00
2022-09-19T03:01:28.816Z,1.90
2022-09-19T03:01:53.358Z,1.90
2022-09-19T03:02:18.939Z,2.00
2022-09-19T03:02:42.576Z,2.20
2022-09-19T03:03:28.341Z,2.00
2022-09-19T03:04:11.220Z,1.85
2022-09-19T03:04:37.684Z,2.10
2022-09-19T03:05:03.821Z,1.90
2022-09-19T03:05:28.000Z,2.20
2022-09-19T03:05:52.195Z,2.03
2022-09-19T03:06:15.835Z,1.80
2022-09-19T03:06:40.765Z,1.83
2022-09-19T03:07:07.704Z,2.17
2022-09-19T03:07:31.540Z,2.20
2022-09-19T03:08:02.762Z,2.00
2022-09-19T03:08:25.680Z,1.95
2022-09-19T03:08:50.581Z,2.05
2022-09-19T03:09:14.615Z,2.22
2022-09-19T03:09:37.381Z,2.00
2022-09-19T03:10:04.180Z,2.28
2022-09-19T03:10:30.941Z,1.90
2022-09-19T03:10:55.328Z,1.88
2022-09-19T03:11:20.015Z,2.17
2022-09-19T03:11:46.113Z,2.50
2022-09-19T03:12:19.476Z,2.00
2022-09-19T03:12:52.015Z,1.88
2022-09-19T03:13:14.757Z,1.95
2022-09-19T03:13:41.340Z,1.92
2022-09-19T03:14:07.645Z,2.10
2022-09-19T03:14:33.445Z,1.90
2022-09-19T03:15:00.020Z,2.03
2022-09-19T03:15:34.249Z,2.38
2022-09-19T03:15:58.839Z,2.10
2022-09-19T03:16:22.965Z,2.17
2022-09-19T03:16:48.509Z,2.03
2022-09-19T03:17:12.380Z,2.03
2022-09-19T03:17:38.739Z,2.20
2022-09-19T03:18:02.774Z,2.03
2022-09-19T03:18:27.101Z,2.00
2022-09-19T03:18:57.478Z,1.90
2022-09-19T03:19:20.214Z,2.00
2022-09-19T03:19:45.613Z,2.20
2022-09-19T03:20:12.509Z,1.95
2022-09-19T03:20:36.389Z,2.20
2022-09-19T03:21:02.928Z,1.90
2022-09-19T03:21:26.529Z,1.90
2022-09-19T03:21:49.612Z,2.28
2022-09-19T03:22:12.375Z,2.10
2022-09-19T03:22:35.718Z,1.98
2022-09-19T03:22:58.447Z,2.00
2022-09-19T03:23:24.510Z,1.80
2022-09-19T03:23:48.522Z,2.05
2022-09-19T03:24:12.690Z,2.10
2022-09-19T03:24:39.527Z,2.00
2022-09-19T03:25:03.377Z,2.00
2022-09-19T03:25:27.520Z,1.90
2022-09-19T03:25:50.610Z,2.10
2022-09-19T03:26:14.396Z,2.13
2022-09-19T03:26:37.622Z,2.40
2022-09-19T03:27:00.312Z,1.98
2022-09-19T03:27:23.055Z,2.03
2022-09-19T03:27:48.801Z,2.22
2022-09-19T03:28:11.522Z,2.15
2022-09-19T03:28:34.235Z,2.20
2022-09-19T03:28:56.991Z,2.00
2022-09-19T03:29:21.135Z,2.30
2022-09-19T03:29:43.926Z,2.38
2022-09-19T03:30:12.293Z,2.60
2022-09-19T03:30:36.391Z,2.35
2022-09-19T03:31:00.451Z,2.20
2022-09-19T03:31:23.374Z,2.25
2022-09-19T03:31:46.805Z,2.20
2022-09-19T03:32:11.052Z,2.20
2022-09-19T03:32:33.738Z,2.00
2022-09-19T03:32:56.475Z,2.30
2022-09-19T03:33:19.245Z,2.20
2022-09-19T03:33:41.935Z,2.05
2022-09-19T03:34:04.679Z,2.10
2022-09-19T03:34:27.649Z,2.35
2022-09-19T03:34:50.318Z,2.30
2022-09-19T03:35:15.783Z,2.30
2022-09-19T03:35:39.143Z,1.90
2022-09-19T03:36:09.178Z,2.10
2022-09-19T03:36:34.729Z,2.10
2022-09-19T03:36:57.462Z,1.92
2022-09-19T03:37:20.121Z,2.20
2022-09-19T03:37:42.848Z,2.00
2022-09-19T03:38:06.284Z,1.98
2022-09-19T03:38:29.287Z,2.10
2022-09-19T03:38:51.988Z,2.00
2022-09-19T03:39:16.344Z,1.90
2022-09-19T03:39:44.143Z,2.05
2022-09-19T03:40:10.026Z,2.10
2022-09-19T03:40:33.507Z,2.15
2022-09-19T03:40:56.365Z,2.15
2022-09-19T03:41:20.031Z,2.30
2022-09-19T03:41:43.513Z,2.10
2022-09-19T03:42:08.208Z,2.10
2022-09-19T03:42:36.645Z,2.10
2022-09-19T03:42:59.370Z,1.90
2022-09-19T03:43:24.494Z,2.22
2022-09-19T03:43:47.280Z,2.13
2022-09-19T03:44:10.035Z,1.90
2022-09-19T03:44:36.384Z,2.00
2022-09-19T03:44:59.084Z,2.00
2022-09-19T03:45:21.809Z,2.05
2022-09-19T03:45:47.310Z,2.13
2022-09-19T03:46:12.126Z,1.90
2022-09-19T03:46:36.026Z,2.13
2022-09-19T03:46:58.717Z,2.00
2022-09-19T03:47:24.650Z,2.15
2022-09-19T03:47:49.474Z,2.40
2022-09-19T03:48:12.395Z,2.35
2022-09-19T03:48:36.556Z,2.10
2022-09-19T03:49:04.639Z,2.20
2022-09-19T03:49:28.295Z,2.10
2022-09-19T03:49:51.510Z,2.22
2022-09-19T03:50:14.245Z,2.28
2022-09-19T03:50:36.950Z,2.38
2022-09-19T03:51:02.051Z,2.00
2022-09-19T03:51:27.285Z,2.00
2022-09-19T03:51:50.644Z,2.20
2022-09-19T03:52:13.369Z,2.10
2022-09-19T03:52:36.171Z,2.05
2022-09-19T03:53:01.874Z,1.90
2022-09-19T03:53:24.580Z,2.13
2022-09-19T03:53:49.699Z,2.05
2022-09-19T03:54:12.445Z,2.20
2022-09-19T03:54:37.590Z,2.20
2022-09-19T03:55:00.465Z,2.25
2022-09-19T03:55:23.191Z,2.00
2022-09-19T03:55:45.926Z,1.92
2022-09-19T03:56:11.110Z,2.13
2022-09-19T03:56:33.923Z,2.00
2022-09-19T03:56:59.824Z,1.90
2022-09-19T03:57:22.583Z,2.10
2022-09-19T03:57:45.261Z,1.95
2022-09-19T03:58:08.025Z,1.90
2022-09-19T03:58:32.248Z,2.10
2022-09-19T03:58:55.051Z,2.05
2022-09-19T03:59:17.934Z,2.30
2022-09-19T03:59:42.910Z,2.15
2022-09-19T04:00:07.599Z,2.20
2022-09-19T04:00:33.354Z,1.95
2022-09-19T04:00:56.084Z,2.20
2022-09-19T04:01:21.803Z,2.30
2022-09-19T04:01:47.034Z,2.00
2022-09-19T04:02:12.143Z,1.92
2022-09-19T04:02:35.662Z,2.00
2022-09-19T04:02:58.562Z,2.10
2022-09-19T04:03:25.322Z,2.20
2022-09-19T04:03:50.269Z,2.30
2022-09-19T04:04:13.030Z,2.40
2022-09-19T04:04:35.864Z,2.25
2022-09-19T04:05:01.590Z,2.00
2022-09-19T04:05:24.318Z,2.20
2022-09-19T04:05:49.428Z,2.40
2022-09-19T04:06:14.403Z,2.20
2022-09-19T04:06:41.342Z,2.17
2022-09-19T04:07:06.731Z,1.77
2022-09-19T04:07:29.535Z,2.10
2022-09-19T04:07:53.434Z,2.28
2022-09-19T04:08:16.690Z,2.20
2022-09-19T04:08:42.431Z,1.95
2022-09-19T04:09:05.330Z,2.25
2022-09-19T04:09:30.472Z,2.10
2022-09-19T04:09:53.064Z,2.20
2022-09-19T04:10:17.166Z,2.30
2022-09-19T04:10:43.589Z,2.33
2022-09-19T04:11:06.534Z,2.45
2022-09-19T04:11:29.789Z,2.25
2022-09-19T04:11:53.136Z,2.22
2022-09-19T04:12:18.917Z,2.28
2022-09-19T04:12:41.771Z,2.05
2022-09-19T04:13:06.987Z,2.20
2022-09-19T04:13:33.173Z,2.05
2022-09-19T04:13:56.648Z,1.92
2022-09-19T04:14:21.523Z,2.10
2022-09-19T04:14:45.925Z,2.15
2022-09-19T04:15:10.201Z,2.38
2022-09-19T04:15:35.211Z,2.22
2022-09-19T04:15:58.616Z,1.90
2022-09-19T04:16:21.354Z,2.22
2022-09-19T04:16:44.142Z,2.60
2022-09-19T04:17:24.389Z,2.20
2022-09-19T04:17:47.687Z,2.30
2022-09-19T04:18:10.766Z,2.00
2022-09-19T04:18:35.454Z,2.30
2022-09-19T04:19:00.532Z,2.22
2022-09-19T04:19:27.216Z,2.30
2022-09-19T04:19:51.579Z,2.05
2022-09-19T04:20:16.557Z,2.38
2022-09-19T04:20:39.866Z,2.13
2022-09-19T04:21:04.915Z,2.30
2022-09-19T04:21:28.319Z,2.10
2022-09-19T04:21:53.298Z,2.28
2022-09-19T04:22:17.864Z,2.03
2022-09-19T04:22:42.783Z,2.10
2022-09-19T04:23:07.759Z,2.10
2022-09-19T04:23:30.489Z,2.10
2022-09-19T04:23:56.268Z,2.20
2022-09-19T04:24:22.163Z,2.10
2022-09-19T04:24:44.966Z,2.00
2022-09-19T04:25:11.921Z,2.30
2022-09-19T04:25:36.382Z,2.65
2022-09-19T04:26:01.390Z,2.30
2022-09-19T04:26:26.412Z,2.08
2022-09-19T04:26:50.756Z,2.58
2022-09-19T04:27:17.553Z,2.30
2022-09-19T04:27:45.236Z,2.58
2022-09-19T04:28:08.786Z,2.20
2022-09-19T04:28:33.724Z,2.10
2022-09-19T04:28:58.670Z,2.22
2022-09-19T04:29:21.383Z,2.10
2022-09-19T04:29:46.515Z,2.30
2022-09-19T04:30:13.410Z,2.30
2022-09-19T04:30:36.494Z,2.40
2022-09-19T04:31:01.630Z,2.47
2022-09-19T04:31:25.033Z,2.47
2022-09-19T04:31:50.352Z,2.33
2022-09-19T04:32:15.976Z,2.50
2022-09-19T04:32:41.176Z,2.20
2022-09-19T04:33:04.509Z,2.30
2022-09-19T04:33:27.603Z,2.20
2022-09-19T04:33:50.275Z,2.22
2022-09-19T04:34:18.231Z,2.60
2022-09-19T04:34:44.452Z,2.53
2022-09-19T04:35:07.523Z,2.33
2022-09-19T04:35:32.938Z,2.20
2022-09-19T04:35:59.858Z,2.40
2022-09-19T04:36:25.183Z,2.40
2022-09-19T04:36:52.348Z,2.42
2022-09-19T04:37:16.623Z,2.53
2022-09-19T04:37:39.674Z,2.60
2022-09-19T04:38:04.833Z,2.40
2022-09-19T04:38:31.788Z,2.55
2022-09-19T04:38:54.486Z,3.05
2022-09-19T04:39:19.402Z,2.75
2022-09-19T04:39:42.300Z,2.60
2022-09-19T04:40:05.698Z,2.47
2022-09-19T04:40:30.844Z,2.45
2022-09-19T04:40:57.765Z,2.60
2022-09-19T04:41:23.040Z,2.72
2022-09-19T04:41:48.201Z,2.55
2022-09-19T04:42:11.011Z,2.40
2022-09-19T04:42:36.109Z,2.40
2022-09-19T04:43:01.115Z,2.50
2022-09-19T04:43:24.695Z,2.47
2022-09-19T04:43:49.935Z,2.30
2022-09-19T04:44:12.623Z,2.40
2022-09-19T04:44:37.771Z,2.50
2022-09-19T04:45:02.048Z,2.50
2022-09-19T04:45:25.020Z,2.35
2022-09-19T04:45:49.746Z,2.63
2022-09-19T04:46:14.325Z,2.30
2022-09-19T04:46:37.220Z,2.10
2022-09-19T04:47:02.097Z,2.42
2022-09-19T04:47:24.950Z,2.55
2022-09-19T04:47:50.625Z,2.40
2022-09-19T04:48:14.277Z,2.40
2022-09-19T04:48:39.288Z,2.60
2022-09-19T04:49:04.260Z,2.40
2022-09-19T04:49:31.405Z,2.42
2022-09-19T04:49:55.355Z,2.70
2022-09-19T04:50:18.790Z,2.70
2022-09-19T04:50:41.451Z,2.40
2022-09-19T04:51:07.354Z,2.35
2022-09-19T04:51:32.363Z,2.40
2022-09-19T04:51:57.625Z,2.53
2022-09-19T04:52:20.465Z,2.75
2022-09-19T04:52:43.297Z,2.35
2022-09-19T04:53:08.128Z,2.40
2022-09-19T04:53:33.030Z,2.65
2022-09-19T04:53:58.010Z,2.30
2022-09-19T04:54:21.120Z,2.60
2022-09-19T04:54:46.310Z,2.70
2022-09-19T04:55:09.952Z,2.42
2022-09-19T04:55:37.135Z,2.35
2022-09-19T04:56:00.114Z,2.80
2022-09-19T04:56:23.014Z,2.60
2022-09-19T04:56:47.527Z,2.60
2022-09-19T04:57:10.316Z,2.42
2022-09-19T04:57:33.047Z,2.40
2022-09-19T04:57:56.030Z,2.30
2022-09-19T04:58:21.197Z,2.50
2022-09-19T04:58:46.401Z,2.78
2022-09-19T04:59:09.211Z,2.50
2022-09-19T04:59:34.451Z,2.35
2022-09-19T04:59:57.280Z,2.30
2022-09-19T05:00:38.341Z,2.40
2022-09-19T05:01:01.353Z,2.83
2022-09-19T05:01:24.668Z,2.88
2022-09-19T05:01:47.557Z,2.90
2022-09-19T05:02:10.378Z,3.20
2022-09-19T05:02:35.333Z,2.85
2022-09-19T05:02:58.095Z,2.78
2022-09-19T05:03:21.801Z,2.65
2022-09-19T05:03:49.595Z,2.47
2022-09-19T05:04:12.340Z,2.50
2022-09-19T05:04:37.825Z,2.42
2022-09-19T05:05:00.519Z,2.63
2022-09-19T05:05:23.350Z,2.80
2022-09-19T05:05:51.523Z,2.58
2022-09-19T05:06:17.845Z,2.55
2022-09-19T05:06:40.500Z,2.40
2022-09-19T05:07:03.390Z,2.50
2022-09-19T05:07:34.398Z,2.72
2022-09-19T05:08:00.148Z,2.65
2022-09-19T05:08:27.506Z,2.63
2022-09-19T05:08:51.974Z,2.50
2022-09-19T05:09:14.885Z,2.58
2022-09-19T05:09:38.062Z,3.15
2022-09-19T05:10:01.786Z,3.30
2022-09-19T05:10:24.527Z,2.92
2022-09-19T05:10:49.830Z,2.67
2022-09-19T05:11:12.587Z,2.70
2022-09-19T05:11:35.250Z,2.90
2022-09-19T05:11:58.238Z,3.00
2022-09-19T05:12:23.280Z,2.90
2022-09-19T05:12:46.075Z,2.88
2022-09-19T05:13:11.125Z,3.10
2022-09-19T05:13:34.835Z,2.95
2022-09-19T05:13:58.928Z,2.70
2022-09-19T05:14:23.220Z,2.97
2022-09-19T05:14:48.415Z,2.85
2022-09-19T05:15:11.418Z,2.80
2022-09-19T05:15:35.546Z,2.90
2022-09-19T05:15:58.508Z,2.60
2022-09-19T05:16:21.674Z,2.70
2022-09-19T05:16:44.695Z,2.90
2022-09-19T05:17:09.658Z,2.70
2022-09-19T05:17:33.693Z,3.10
2022-09-19T05:17:56.581Z,2.95
2022-09-19T05:18:21.360Z,3.17
2022-09-19T05:18:43.992Z,3.40
2022-09-19T05:19:06.732Z,2.90
2022-09-19T05:19:31.851Z,2.78
2022-09-19T05:19:56.897Z,3.00
2022-09-19T05:20:22.023Z,2.63
2022-09-19T05:20:44.636Z,2.55
2022-09-19T05:21:10.356Z,2.70
2022-09-19T05:21:36.496Z,2.70
2022-09-19T05:21:59.206Z,2.65
2022-09-19T05:22:21.919Z,2.65
2022-09-19T05:22:46.871Z,2.33
2022-09-19T05:23:09.686Z,2.40
2022-09-19T05:23:32.357Z,2.50
2022-09-19T05:23:57.552Z,2.45
2022-09-19T05:24:22.755Z,2.78
2022-09-19T05:24:45.547Z,2.47
2022-09-19T05:25:11.052Z,2.72
2022-09-19T05:25:37.591Z,3.00
2022-09-19T05:26:03.987Z,2.60
2022-09-19T05:26:26.793Z,2.60
2022-09-19T05:26:49.502Z,2.53
2022-09-19T05:27:12.812Z,2.55
2022-09-19T05:27:38.457Z,2.42
2022-09-19T05:28:07.282Z,2.42
2022-09-19T05:28:30.187Z,3.13
2022-09-19T05:28:53.000Z,2.90
2022-09-19T05:29:16.032Z,2.80
2022-09-19T05:29:40.660Z,2.88
2022-09-19T05:30:04.412Z,2.83
2022-09-19T05:30:27.684Z,2.65
2022-09-19T05:30:55.356Z,2.70
2022-09-19T05:31:19.602Z,2.85
2022-09-19T05:31:42.816Z,2.85
2022-09-19T05:32:06.193Z,2.70
2022-09-19T05:32:28.975Z,2.60
2022-09-19T05:32:51.689Z,2.63
2022-09-19T05:33:14.454Z,2.50
2022-09-19T05:33:37.805Z,2.58
2022-09-19T05:34:01.574Z,2.85
2022-09-19T05:34:26.494Z,2.50
2022-09-19T05:34:49.184Z,2.72
2022-09-19T05:35:12.486Z,2.55
2022-09-19T05:35:35.164Z,2.38
2022-09-19T05:36:00.519Z,2.53
2022-09-19T05:36:23.204Z,2.65
2022-09-19T05:36:49.159Z,2.15
2022-09-19T05:37:11.905Z,2.30
2022-09-19T05:37:41.309Z,2.50
2022-09-19T05:38:04.074Z,2.42
2022-09-19T05:38:29.294Z,2.17
2022-09-19T05:38:53.341Z,2.60
2022-09-19T05:39:16.678Z,2.50